メインページ
METAR-TAF:

METAR-TAF

空港 :

ドバイ国際空港

ドバイ, アラブ首長国連邦

緯度: 25-15-10N, 経度: 055-21-52E, 海抜: 8m

現時点の気象観測

当レポートは12分前の12:00(UTC)に作成
北/北西の風 14kt
気温 37°C
湿度 18%
気圧 1008 hPa
視程10km以上
1,500メートル以下は雲なし、積乱雲なし

METAR: OMDB 221200Z 33014KT CAVOK 37/09 Q1008 NOSIG

時間: 16:12 (12:12 UTC)

予報

当レポートは1時間11分前の11:01(UTC)に作成
予報は22日の 12時(UTC)から 23日の 18時(UTC)まで有効
北/北西の風 12kt
視程10km以上
1,500メートル以下は雲なし、積乱雲なし
22日の 16時(UTC)から 22日の 18時(UTC)まで徐々に
東/北東の風 5kt
23日の 03時(UTC)から 23日の 05時(UTC)まで徐々に
の風 10kt
23日の 08時(UTC)から 23日の 10時(UTC)まで徐々に
西/北西の風 10kt
23日の 15時(UTC)から 23日の 17時(UTC)まで徐々に
変向風 2kt

TAF: OMDB 221101Z 2212/2318 34012KT CAVOK BECMG 2216/2218 07005KT BECMG 2303/2305 18010KT BECMG 2308/2310 30010KT BECMG 2315/2317 VRB02KT

4,000以上の空港の気象観測と天気予報(METAR報とTAF報)

利用可能な観測所は地図上に黄色い丸と赤い丸で示す。

丸の上にカーソルを重ねると観測所名を参照できる。

次にクリックすると気象観測と天気予報を参照できる。

マップの切り替え:黒色「×」印の緑ボタンをクリックして拡大、「-」印の緑ボタンをクリックして縮小、緑色の三角印をクリックして隣りの地図に切り替え


METAR-TAF: